createdAt,value
2022-09-07T00:02:13.457Z,8.20
2022-09-07T00:04:40.388Z,8.20
2022-09-07T00:07:07.405Z,8.27
2022-09-07T00:09:34.399Z,7.55
2022-09-07T00:12:01.541Z,8.13
2022-09-07T00:14:28.505Z,7.45
2022-09-07T00:16:55.375Z,7.10
2022-09-07T00:19:22.274Z,7.22
2022-09-07T00:21:49.112Z,7.95
2022-09-07T00:24:15.981Z,7.60
2022-09-07T00:26:42.896Z,7.45
2022-09-07T00:29:09.907Z,7.43
2022-09-07T00:31:36.871Z,7.95
2022-09-07T00:34:04.220Z,7.40
2022-09-07T00:36:31.348Z,7.82
2022-09-07T00:38:58.457Z,7.97
2022-09-07T00:41:25.557Z,8.65
2022-09-07T00:43:55.710Z,8.55
2022-09-07T00:46:25.977Z,8.40
2022-09-07T00:48:59.621Z,8.50
2022-09-07T00:51:50.272Z,7.70
2022-09-07T00:54:27.102Z,8.05
2022-09-07T00:56:54.299Z,7.97
2022-09-07T00:59:27.145Z,7.35
2022-09-07T01:01:54.304Z,8.05
2022-09-07T01:04:22.471Z,7.57
2022-09-07T01:06:50.190Z,8.30
2022-09-07T01:09:21.668Z,8.77
2022-09-07T01:11:49.398Z,8.80
2022-09-07T01:14:18.282Z,8.63
2022-09-07T01:17:01.857Z,8.25
2022-09-07T01:20:05.341Z,8.20
2022-09-07T01:22:52.215Z,8.43
2022-09-07T01:25:41.607Z,8.13
2022-09-07T01:28:25.877Z,8.77
2022-09-07T01:31:18.393Z,8.75
2022-09-07T01:34:09.272Z,8.90
2022-09-07T01:36:55.775Z,8.52
2022-09-07T01:39:29.967Z,8.48
2022-09-07T01:42:05.432Z,8.70
2022-09-07T01:44:38.964Z,8.45
2022-09-07T01:47:12.304Z,8.30
2022-09-07T01:49:59.087Z,8.40
2022-09-07T01:52:34.877Z,8.95
2022-09-07T01:55:24.787Z,8.50
2022-09-07T01:58:08.198Z,8.93
2022-09-07T02:00:37.562Z,8.57
2022-09-07T02:03:18.171Z,8.43
2022-09-07T02:06:07.114Z,8.98
2022-09-07T02:08:53.224Z,9.05
2022-09-07T02:11:24.992Z,9.10
2022-09-07T02:13:58.353Z,8.30
2022-09-07T02:16:28.385Z,9.32
2022-09-07T02:19:16.359Z,9.35
2022-09-07T02:21:54.405Z,9.10
2022-09-07T02:24:34.003Z,9.73
2022-09-07T02:27:07.250Z,8.63
2022-09-07T02:29:34.135Z,8.88
2022-09-07T02:32:01.301Z,8.88
2022-09-07T02:34:28.261Z,9.43
2022-09-07T02:36:57.122Z,8.40
2022-09-07T02:39:24.018Z,8.63
2022-09-07T02:41:50.940Z,8.18
2022-09-07T02:44:25.387Z,9.30
2022-09-07T02:47:01.039Z,9.55
2022-09-07T02:49:39.037Z,9.65
2022-09-07T02:52:29.692Z,9.52
2022-09-07T02:55:23.037Z,9.35
2022-09-07T02:58:19.532Z,8.82
2022-09-07T03:01:14.756Z,9.25
2022-09-07T03:04:00.402Z,9.63
2022-09-07T03:06:38.442Z,9.70
2022-09-07T03:09:14.879Z,15.27
2022-09-07T03:11:42.137Z,19.90
2022-09-07T03:14:13.738Z,12.57
2022-09-07T03:16:40.601Z,20.25
2022-09-07T03:19:07.985Z,10.80
2022-09-07T03:21:35.042Z,10.45
2022-09-07T03:24:02.370Z,9.68
2022-09-07T03:26:29.273Z,10.00
2022-09-07T03:28:56.240Z,9.80
2022-09-07T03:31:23.153Z,11.00
2022-09-07T03:33:50.311Z,11.93
2022-09-07T03:36:17.335Z,10.80
2022-09-07T03:38:44.391Z,13.25
2022-09-07T03:41:11.226Z,11.77
2022-09-07T03:43:38.096Z,9.98
2022-09-07T03:46:06.358Z,10.13
2022-09-07T03:48:34.920Z,10.65
2022-09-07T03:51:05.445Z,10.88
2022-09-07T03:53:34.399Z,9.88
2022-09-07T03:56:08.144Z,10.10
2022-09-07T03:58:35.798Z,10.27
2022-09-07T04:01:12.017Z,10.93
2022-09-07T04:03:39.614Z,10.68
2022-09-07T04:06:06.726Z,10.05
2022-09-07T04:08:36.987Z,9.85
2022-09-07T04:11:06.318Z,9.20
2022-09-07T04:13:35.655Z,10.43
2022-09-07T04:16:21.376Z,10.63
2022-09-07T04:18:49.269Z,10.48
2022-09-07T04:21:17.484Z,10.95
2022-09-07T04:23:44.892Z,11.38
2022-09-07T04:26:21.869Z,10.90
2022-09-07T04:28:49.683Z,10.93
2022-09-07T04:31:18.380Z,11.93
2022-09-07T04:33:46.676Z,10.23
2022-09-07T04:36:14.762Z,9.77
2022-09-07T04:38:41.878Z,10.23
2022-09-07T04:41:17.260Z,9.60
2022-09-07T04:43:45.353Z,12.48
2022-09-07T04:46:23.991Z,14.70
2022-09-07T04:48:53.088Z,13.30
2022-09-07T04:51:21.353Z,18.20
2022-09-07T04:53:50.265Z,16.35
2022-09-07T04:56:18.523Z,13.80
2022-09-07T04:58:46.306Z,11.02
2022-09-07T05:01:16.372Z,11.40
2022-09-07T05:03:44.087Z,10.68
2022-09-07T05:06:11.680Z,11.25
2022-09-07T05:08:48.764Z,10.63
2022-09-07T05:11:16.743Z,10.23
2022-09-07T05:13:44.030Z,10.00
2022-09-07T05:16:14.029Z,10.23
2022-09-07T05:18:41.245Z,11.40
2022-09-07T05:21:16.223Z,9.88
2022-09-07T05:23:44.139Z,8.55
2022-09-07T05:26:12.368Z,8.05
2022-09-07T05:28:39.536Z,6.35
2022-09-07T05:36:42.795Z,5.47
2022-09-07T05:39:10.700Z,5.13
2022-09-07T05:41:37.773Z,5.43
2022-09-07T05:46:52.623Z,4.95
2022-09-07T05:49:19.456Z,4.82
2022-09-07T05:51:46.720Z,4.28
2022-09-07T05:54:13.778Z,4.82
2022-09-07T05:56:40.958Z,4.18
2022-09-07T05:59:07.802Z,4.45
2022-09-07T06:01:34.684Z,4.78
2022-09-07T06:04:02.032Z,4.13
2022-09-07T06:06:28.930Z,4.13
2022-09-07T06:08:55.804Z,4.53
2022-09-07T06:11:24.398Z,4.13
2022-09-07T06:13:52.994Z,4.88
2022-09-07T06:16:20.453Z,4.05
2022-09-07T06:18:49.928Z,4.68
2022-09-07T06:21:25.621Z,4.70
2022-09-07T06:23:52.502Z,4.38
2022-09-07T06:26:19.579Z,4.20
2022-09-07T06:28:49.837Z,3.85
2022-09-07T06:31:20.419Z,4.25
2022-09-07T06:33:48.630Z,4.07
2022-09-07T06:36:24.294Z,4.72
2022-09-07T06:38:52.788Z,4.53
2022-09-07T06:44:09.624Z,4.45
2022-09-07T06:49:23.607Z,5.25
2022-09-07T06:51:51.101Z,4.60
2022-09-07T06:57:05.655Z,4.47
2022-09-07T06:59:32.656Z,4.93
2022-09-07T07:01:59.507Z,4.75
2022-09-07T07:04:26.531Z,5.13
2022-09-07T07:06:53.538Z,4.90
2022-09-07T07:09:20.522Z,5.00
2022-09-07T07:11:47.399Z,4.30
2022-09-07T07:14:15.287Z,4.97
2022-09-07T07:16:42.525Z,4.85
2022-09-07T07:19:09.860Z,4.35
2022-09-07T07:21:55.235Z,4.68
2022-09-07T07:24:23.695Z,4.53
2022-09-07T07:26:50.971Z,4.57
2022-09-07T07:29:18.901Z,4.25
2022-09-07T07:31:47.264Z,4.70
2022-09-07T07:34:14.838Z,4.63
2022-09-07T07:36:42.167Z,4.20
2022-09-07T07:42:00.246Z,4.28
2022-09-07T07:44:30.169Z,4.63
2022-09-07T07:46:57.112Z,4.40
2022-09-07T07:49:24.126Z,4.80
2022-09-07T07:54:40.526Z,4.13
2022-09-07T07:57:07.670Z,4.45
2022-09-07T07:59:35.480Z,4.38
2022-09-07T08:02:02.561Z,4.18
2022-09-07T08:04:29.870Z,4.03
2022-09-07T08:06:57.119Z,3.95
2022-09-07T08:09:24.126Z,3.92
2022-09-07T08:11:51.029Z,3.95
2022-09-07T08:14:18.018Z,4.55
2022-09-07T08:16:45.671Z,4.00
2022-09-07T08:19:12.943Z,4.38
2022-09-07T08:21:39.804Z,3.95
2022-09-07T08:24:07.096Z,4.05
2022-09-07T08:26:34.151Z,3.85
2022-09-07T08:29:00.970Z,3.85
2022-09-07T08:31:27.864Z,4.03
2022-09-07T08:33:54.799Z,4.55
2022-09-07T08:36:21.896Z,4.07
2022-09-07T08:38:48.961Z,4.00
2022-09-07T08:41:37.472Z,4.43
2022-09-07T08:44:11.844Z,4.20
2022-09-07T08:46:59.031Z,3.88
2022-09-07T08:49:51.552Z,3.55
2022-09-07T08:52:24.364Z,4.00
2022-09-07T08:55:03.356Z,4.15
2022-09-07T08:57:33.299Z,4.15
2022-09-07T09:00:07.837Z,3.90
2022-09-07T09:02:42.015Z,3.75
2022-09-07T09:05:43.392Z,4.00
2022-09-07T09:08:19.464Z,3.95
2022-09-07T09:11:08.857Z,3.90
2022-09-07T09:13:41.701Z,3.83
2022-09-07T09:16:23.085Z,4.50
2022-09-07T09:19:11.194Z,4.15
2022-09-07T09:21:40.067Z,4.65
2022-09-07T09:24:18.814Z,4.30
2022-09-07T09:26:54.756Z,4.25
2022-09-07T09:29:23.202Z,4.10
2022-09-07T09:31:50.052Z,3.83
2022-09-07T09:34:21.176Z,3.95
2022-09-07T09:36:55.823Z,3.70
2022-09-07T09:39:32.989Z,3.28
2022-09-07T09:42:22.215Z,3.40
2022-09-07T09:44:50.080Z,3.58
2022-09-07T09:47:32.505Z,3.38
2022-09-07T09:50:07.979Z,3.25
2022-09-07T09:52:45.381Z,3.30
2022-09-07T09:55:34.539Z,3.33
2022-09-07T10:01:25.358Z,3.13
2022-09-07T10:06:27.052Z,3.38
2022-09-07T10:09:00.114Z,3.45
2022-09-07T10:14:43.903Z,3.50
2022-09-07T10:17:41.807Z,3.28
2022-09-07T10:20:14.781Z,3.63
2022-09-07T10:22:46.622Z,3.13
2022-09-07T10:25:42.454Z,3.63
2022-09-07T10:28:09.233Z,3.10
2022-09-07T10:31:14.745Z,3.40
2022-09-07T10:37:06.601Z,3.20
2022-09-07T10:39:40.591Z,3.35
2022-09-07T10:42:10.522Z,3.63
2022-09-07T10:45:15.442Z,3.57
2022-09-07T10:48:03.079Z,3.88
2022-09-07T10:51:13.986Z,3.78
2022-09-07T10:57:36.986Z,3.65
2022-09-07T11:00:10.806Z,3.47
2022-09-07T11:03:35.319Z,3.70
2022-09-07T11:06:17.071Z,3.38
2022-09-07T11:09:19.545Z,3.30
2022-09-07T11:12:04.913Z,3.70
2022-09-07T11:14:38.630Z,3.65
2022-09-07T11:17:23.241Z,3.70
2022-09-07T11:20:03.458Z,3.42
2022-09-07T11:23:06.878Z,3.30
2022-09-07T11:25:57.812Z,3.53
2022-09-07T11:28:29.788Z,3.58
2022-09-07T11:31:01.727Z,3.40
2022-09-07T11:33:34.680Z,3.50
2022-09-07T11:36:11.251Z,3.63
2022-09-07T11:38:49.832Z,3.83
2022-09-07T11:41:25.584Z,3.70
2022-09-07T11:44:06.651Z,3.42
2022-09-07T11:46:39.114Z,3.28
2022-09-07T11:49:13.955Z,3.83
2022-09-07T11:51:46.467Z,3.40
2022-09-07T11:54:51.906Z,3.47
2022-09-07T11:57:36.303Z,3.58
2022-09-07T12:00:26.935Z,4.05
2022-09-07T12:03:16.098Z,3.70
2022-09-07T12:08:11.746Z,3.88
2022-09-07T12:11:22.687Z,3.70
2022-09-07T12:14:12.097Z,3.60
2022-09-07T12:17:13.990Z,3.67
2022-09-07T12:19:40.903Z,3.85
2022-09-07T12:22:22.630Z,3.95
2022-09-07T12:24:52.017Z,4.00
2022-09-07T12:27:21.638Z,3.92
2022-09-07T12:29:51.183Z,3.90
2022-09-07T12:32:58.855Z,4.18
2022-09-07T12:35:28.602Z,4.07
2022-09-07T12:38:02.653Z,4.07
2022-09-07T12:40:29.586Z,4.05
2022-09-07T12:43:14.912Z,3.92
2022-09-07T12:45:41.801Z,4.30
2022-09-07T12:48:17.707Z,4.15
2022-09-07T12:54:34.688Z,4.13
2022-09-07T12:57:30.181Z,4.38
2022-09-07T13:00:35.821Z,4.32
2022-09-07T13:09:40.883Z,6.00
2022-09-07T13:15:46.793Z,5.90
2022-09-07T13:18:26.033Z,5.22
2022-09-07T13:21:36.190Z,5.40
2022-09-07T13:27:22.698Z,5.80
2022-09-07T13:29:55.610Z,5.70
2022-09-07T13:33:08.030Z,5.65
2022-09-07T13:35:21.210Z,5.50
2022-09-07T13:37:48.126Z,5.53
2022-09-07T13:40:20.731Z,5.40
2022-09-07T13:42:50.157Z,5.60
2022-09-07T13:45:30.170Z,5.30
2022-09-07T13:48:11.581Z,5.30
2022-09-07T13:50:46.107Z,5.25
2022-09-07T13:53:31.718Z,5.28
2022-09-07T13:56:07.770Z,5.78
2022-09-07T13:58:41.127Z,5.60
2022-09-07T14:01:28.659Z,5.53
2022-09-07T14:03:59.103Z,5.95
2022-09-07T14:08:57.383Z,5.55
2022-09-07T14:11:27.765Z,5.60
2022-09-07T14:14:14.503Z,5.72
2022-09-07T14:16:44.782Z,5.10
2022-09-07T14:19:24.610Z,4.93
2022-09-07T14:22:00.083Z,4.88
2022-09-07T14:24:35.866Z,5.18
2022-09-07T14:27:04.413Z,5.47
2022-09-07T14:29:34.493Z,5.40
2022-09-07T14:32:03.969Z,5.32
2022-09-07T14:34:34.669Z,5.60
2022-09-07T14:39:38.223Z,5.00
2022-09-07T14:42:06.132Z,5.75
2022-09-07T14:44:38.775Z,5.05
2022-09-07T14:47:20.804Z,5.50
2022-09-07T14:49:55.984Z,5.63
2022-09-07T14:52:39.139Z,5.30
2022-09-07T14:55:27.233Z,5.50
2022-09-07T14:58:09.179Z,5.68
2022-09-07T15:00:36.710Z,5.72
2022-09-07T15:03:22.462Z,5.68
2022-09-07T15:05:49.468Z,5.35
2022-09-07T15:08:38.333Z,5.60
2022-09-07T15:16:33.119Z,6.20
2022-09-07T15:19:22.422Z,6.00
2022-09-07T15:21:49.369Z,5.95
2022-09-07T15:24:16.535Z,5.95
2022-09-07T15:27:03.987Z,5.72
2022-09-07T15:29:31.652Z,6.05
2022-09-07T15:32:04.033Z,6.95
2022-09-07T15:34:31.985Z,6.07
2022-09-07T15:36:59.766Z,5.75
2022-09-07T15:39:28.114Z,6.03
2022-09-07T15:41:55.562Z,6.13
2022-09-07T15:44:26.362Z,6.00
2022-09-07T15:49:49.201Z,6.22
2022-09-07T15:52:17.635Z,6.53
2022-09-07T15:54:44.652Z,6.85
2022-09-07T15:59:58.686Z,6.97
2022-09-07T16:05:13.069Z,6.90
2022-09-07T16:10:31.142Z,7.03
2022-09-07T16:13:03.278Z,7.80
2022-09-07T16:15:45.082Z,7.47
2022-09-07T16:18:16.443Z,7.60
2022-09-07T16:20:44.975Z,6.88
2022-09-07T16:23:14.999Z,7.80
2022-09-07T16:28:10.491Z,7.95
2022-09-07T16:30:40.665Z,8.13
2022-09-07T16:33:08.069Z,8.23
2022-09-07T16:35:35.074Z,8.30
2022-09-07T16:40:49.298Z,8.60
2022-09-07T16:43:16.925Z,7.85
2022-09-07T16:48:31.899Z,8.23
2022-09-07T16:51:02.344Z,8.07
2022-09-07T16:53:31.731Z,8.13
2022-09-07T16:56:05.464Z,8.02
2022-09-07T16:58:36.115Z,8.77
2022-09-07T17:01:04.832Z,8.70
2022-09-07T17:03:31.807Z,8.75
2022-09-07T17:06:02.966Z,8.63
2022-09-07T17:08:30.095Z,8.82
2022-09-07T17:11:01.134Z,9.10
2022-09-07T17:15:55.110Z,9.57
2022-09-07T17:19:28.950Z,9.23
2022-09-07T17:21:09.826Z,9.43
2022-09-07T17:23:44.631Z,9.00
2022-09-07T17:26:18.901Z,9.75
2022-09-07T17:28:49.280Z,9.55
2022-09-07T17:34:04.821Z,10.18
2022-09-07T17:36:32.134Z,9.43
2022-09-07T17:39:17.210Z,9.32
2022-09-07T17:41:45.416Z,10.07
2022-09-07T17:44:12.661Z,10.10
2022-09-07T17:46:39.648Z,9.73
2022-09-07T17:49:06.801Z,10.07
2022-09-07T17:51:33.724Z,9.50
2022-09-07T17:54:02.476Z,9.77
2022-09-07T17:56:30.347Z,10.27
2022-09-07T18:00:10.593Z,9.57
2022-09-07T18:01:45.451Z,9.43
2022-09-07T18:04:12.699Z,10.10
2022-09-07T18:06:40.345Z,10.27
2022-09-07T18:09:07.727Z,9.93
2022-09-07T18:11:51.289Z,9.93
2022-09-07T18:14:19.271Z,9.60
2022-09-07T18:16:49.348Z,9.77
2022-09-07T18:19:18.241Z,9.98
2022-09-07T18:21:46.967Z,9.80
2022-09-07T18:24:15.921Z,9.93
2022-09-07T18:26:44.705Z,10.40
2022-09-07T18:29:28.069Z,9.75
2022-09-07T18:31:57.050Z,10.00
2022-09-07T18:34:24.368Z,10.02
2022-09-07T18:36:51.612Z,9.98
2022-09-07T18:39:18.919Z,10.43
2022-09-07T18:41:45.879Z,9.65
2022-09-07T18:47:01.386Z,10.20
2022-09-07T18:49:29.547Z,10.20
2022-09-07T18:54:44.429Z,10.52
2022-09-07T18:57:11.877Z,9.68
2022-09-07T18:59:41.843Z,10.18
2022-09-07T19:02:10.159Z,9.88
2022-09-07T19:07:29.815Z,9.70
2022-09-07T19:09:57.755Z,9.60
2022-09-07T19:12:25.166Z,9.63
2022-09-07T19:14:52.444Z,9.82
2022-09-07T19:17:20.137Z,9.65
2022-09-07T19:19:50.071Z,10.02
2022-09-07T19:22:17.388Z,9.32
2022-09-07T19:24:44.793Z,10.07
2022-09-07T19:27:12.087Z,8.85
2022-09-07T19:29:39.785Z,9.75
2022-09-07T19:32:07.471Z,9.30
2022-09-07T19:34:36.185Z,9.38
2022-09-07T19:37:04.313Z,9.50
2022-09-07T19:39:32.977Z,9.48
2022-09-07T19:42:00.904Z,9.52
2022-09-07T19:44:28.175Z,10.00
2022-09-07T19:46:56.077Z,9.68
2022-09-07T19:49:24.006Z,9.43
2022-09-07T19:51:52.314Z,10.27
2022-09-07T19:54:19.873Z,9.82
2022-09-07T19:56:47.329Z,10.40
2022-09-07T19:59:14.710Z,10.57
2022-09-07T20:01:42.636Z,11.02
2022-09-07T20:04:17.413Z,10.77
2022-09-07T20:06:47.331Z,10.43
2022-09-07T20:09:14.597Z,10.60
2022-09-07T20:11:46.327Z,10.60
2022-09-07T20:14:18.066Z,10.68
2022-09-07T20:16:45.579Z,11.25
2022-09-07T20:19:13.985Z,10.65
2022-09-07T20:21:41.456Z,10.68
2022-09-07T20:24:10.599Z,10.98
2022-09-07T20:26:37.649Z,11.93
2022-09-07T20:29:26.222Z,11.20
2022-09-07T20:31:52.687Z,10.88
2022-09-07T20:34:19.940Z,10.85
2022-09-07T20:36:50.030Z,11.13
2022-09-07T20:39:17.143Z,11.27
2022-09-07T20:41:43.974Z,11.25
2022-09-07T20:44:10.818Z,11.32
2022-09-07T20:46:37.707Z,11.38
2022-09-07T20:49:04.889Z,11.60
2022-09-07T20:51:32.278Z,11.00
2022-09-07T20:53:59.627Z,11.80
2022-09-07T20:56:27.989Z,12.13
2022-09-07T20:59:02.892Z,11.18
2022-09-07T21:01:30.982Z,11.40
2022-09-07T21:03:59.121Z,11.48
2022-09-07T21:06:26.993Z,11.73
2022-09-07T21:08:55.343Z,11.98
2022-09-07T21:11:24.589Z,11.00
2022-09-07T21:13:56.178Z,11.57
2022-09-07T21:16:23.096Z,11.25
2022-09-07T21:18:56.674Z,11.85
2022-09-07T21:21:24.607Z,11.77
2022-09-07T21:23:55.989Z,11.93
2022-09-07T21:26:23.461Z,12.05
2022-09-07T21:29:02.453Z,11.35
2022-09-07T21:31:30.979Z,11.95
2022-09-07T21:33:59.860Z,12.02
2022-09-07T21:36:27.538Z,11.30
2022-09-07T21:38:54.866Z,11.90
2022-09-07T21:41:23.798Z,11.40
2022-09-07T21:43:54.887Z,11.45
2022-09-07T21:46:22.322Z,11.63
2022-09-07T21:48:49.323Z,12.05
2022-09-07T21:51:16.259Z,11.90
2022-09-07T21:53:44.096Z,11.65
2022-09-07T21:56:13.013Z,11.43
2022-09-07T21:58:40.211Z,11.77
2022-09-07T22:01:12.345Z,12.15
2022-09-07T22:03:40.727Z,12.15
2022-09-07T22:06:08.921Z,12.07
2022-09-07T22:08:37.352Z,11.80
2022-09-07T22:11:05.500Z,12.45
2022-09-07T22:13:32.385Z,12.40
2022-09-07T22:15:59.305Z,13.25
2022-09-07T22:18:26.144Z,14.25
2022-09-07T22:21:10.882Z,14.95
2022-09-07T22:23:43.497Z,13.95
2022-09-07T22:26:10.290Z,14.27
2022-09-07T22:28:38.207Z,14.13
2022-09-07T22:31:16.421Z,14.65
2022-09-07T22:33:44.352Z,13.88
2022-09-07T22:36:22.754Z,13.82
2022-09-07T22:38:52.778Z,14.00
2022-09-07T22:41:22.023Z,13.07
2022-09-07T22:43:49.453Z,13.73
2022-09-07T22:46:16.872Z,13.70
2022-09-07T22:48:44.285Z,13.63
2022-09-07T22:51:11.603Z,13.10
2022-09-07T22:53:41.698Z,13.88
2022-09-07T22:56:11.418Z,13.80
2022-09-07T22:58:39.154Z,13.93
2022-09-07T23:01:06.766Z,14.18
2022-09-07T23:03:35.074Z,13.68
2022-09-07T23:06:02.672Z,13.80
2022-09-07T23:08:29.953Z,14.50
2022-09-07T23:11:02.963Z,14.02
2022-09-07T23:13:29.802Z,14.15
2022-09-07T23:15:57.471Z,14.85
2022-09-07T23:18:24.467Z,14.43
2022-09-07T23:20:51.287Z,14.60
2022-09-07T23:23:18.124Z,14.65
2022-09-07T23:25:44.933Z,13.75
2022-09-07T23:28:12.456Z,14.07
2022-09-07T23:30:39.899Z,14.73
2022-09-07T23:33:07.237Z,14.77
2022-09-07T23:35:34.091Z,15.07
2022-09-07T23:38:00.892Z,14.75
2022-09-07T23:40:27.695Z,15.50
2022-09-07T23:42:54.500Z,14.20
2022-09-07T23:45:21.292Z,15.00
2022-09-07T23:47:48.091Z,14.75
2022-09-07T23:50:14.935Z,14.50
2022-09-07T23:52:41.835Z,15.23
2022-09-07T23:55:09.182Z,14.57
2022-09-07T23:57:36.019Z,15.45
